Terminal Aerodrome Forecast
Issued by NWS Flagstaff, AZ

Home | Current Version | Previous Version | Text Only | Print | Product List | Glossary On
Versions: 1 2 3 4 5 6 7 8 9 10 11 12 13 14
491
FTUS45 KFGZ 291017 AAA
TAFFLG
TAF AMD
KFLG 291017Z 2910/3006 04006KT P6SM SCT060
     FM291200 03008G12KT P6SM FEW060 SCT080
     FM291500 03016G28KT P6SM FEW080
     FM292200 05011G18KT P6SM SCT060 BKN080
     FM300200 06007KT P6SM SCT080=

USA.gov is the U.S. government's official web portal to all federal, state and local government web resources and services.